Time;durP1;ratioP1;P1;durP2;ratioP2;P2;SDS_P1;SDS_P2;PMS_P1;PMS_P2;Temp;Humidity;BMP_temperature;BMP_pressure;BME280_temperature;BME280_humidity;BME280_pressure;Samples;Min_cycle;Max_cycle;Signal;HPM_P1;HPM_P2
2022/03/14 00:01:09;;;;;;;12.93;8.07;;;9.50;26.50;;;;;;5120842;28;19948;-67
2022/03/14 00:03:45;;;;;;;12.35;8.10;;;9.50;26.50;;;;;;5120763;28;20034;-67
2022/03/14 00:06:12;;;;;;;14.30;7.57;;;9.50;26.30;;;;;;5119537;28;20012;-67
2022/03/14 00:08:42;;;;;;;16.73;8.88;;;9.50;26.40;;;;;;5120730;28;20026;-65
2022/03/14 00:11:08;;;;;;;12.70;8.13;;;9.50;26.50;;;;;;5120726;28;20035;-66
2022/03/14 00:13:34;;;;;;;16.02;8.18;;;9.60;26.50;;;;;;5120755;28;20093;-66
2022/03/14 00:16:00;;;;;;;15.18;8.27;;;9.50;26.40;;;;;;5120702;28;20035;-66
2022/03/14 00:18:27;;;;;;;15.05;8.93;;;9.50;26.40;;;;;;5120619;28;20024;-66
2022/03/14 00:20:53;;;;;;;13.55;8.70;;;9.60;26.30;;;;;;5120546;28;20024;-66
2022/03/14 00:23:19;;;;;;;16.85;8.82;;;9.60;26.60;;;;;;5120479;28;20027;-66
2022/03/14 00:25:44;;;;;;;15.65;8.95;;;9.60;26.40;;;;;;5120559;28;20043;-66
2022/03/14 00:28:11;;;;;;;17.17;9.30;;;9.60;26.60;;;;;;5120465;28;20022;-65
2022/03/14 00:30:37;;;;;;;15.48;9.25;;;9.60;26.60;;;;;;5120518;28;20169;-66
2022/03/14 00:33:02;;;;;;;14.50;9.02;;;9.60;26.50;;;;;;5120450;28;20491;-66
2022/03/14 00:35:28;;;;;;;16.77;9.68;;;9.50;26.30;;;;;;5120393;28;20028;-65
2022/03/14 00:37:54;;;;;;;13.73;8.60;;;9.50;26.60;;;;;;5120372;28;20031;-66
2022/03/14 00:40:20;;;;;;;15.80;9.10;;;9.50;26.50;;;;;;5120943;28;20428;-66
2022/03/14 00:42:48;;;;;;;17.67;8.45;;;9.50;26.30;;;;;;5121300;28;20238;-67
2022/03/14 00:45:14;;;;;;;14.55;9.73;;;9.50;26.50;;;;;;5124651;28;20091;-68
2022/03/14 00:47:40;;;;;;;16.95;9.05;;;9.50;26.50;;;;;;5124583;28;20081;-66
2022/03/14 00:50:07;;;;;;;16.63;9.32;;;9.50;26.40;;;;;;5124485;28;20023;-67
2022/03/14 00:52:32;;;;;;;14.98;8.93;;;9.50;26.60;;;;;;5124416;28;20048;-66
2022/03/14 00:54:58;;;;;;;16.00;9.57;;;9.60;26.50;;;;;;5124306;28;20077;-66
2022/03/14 00:57:25;;;;;;;16.83;8.77;;;9.50;26.50;;;;;;5124316;28;20090;-66
2022/03/14 00:59:51;;;;;;;14.00;8.68;;;9.50;26.50;;;;;;5124286;28;20125;-66
2022/03/14 01:02:17;;;;;;;20.63;10.50;;;9.50;26.60;;;;;;5124158;28;20029;-66
2022/03/14 01:04:42;;;;;;;16.65;10.10;;;9.50;26.60;;;;;;5124243;28;20090;-66
2022/03/14 01:07:08;;;;;;;14.48;9.38;;;9.50;26.60;;;;;;5124162;28;20224;-66
2022/03/14 01:09:34;;;;;;;14.52;8.82;;;9.50;26.50;;;;;;5124082;28;20319;-67
2022/03/14 01:12:00;;;;;;;17.08;9.30;;;9.50;26.50;;;;;;5124174;28;20023;-66
2022/03/14 01:14:26;;;;;;;16.83;9.48;;;9.50;26.60;;;;;;5124009;28;20024;-66
2022/03/14 01:16:53;;;;;;;14.63;9.32;;;9.50;26.50;;;;;;5123997;28;20368;-66
2022/03/14 01:19:19;;;;;;;20.17;11.90;;;9.30;26.40;;;;;;5123870;28;20082;-67
2022/03/14 01:21:46;;;;;;;18.70;10.60;;;9.20;26.50;;;;;;5123954;27;20205;-66
2022/03/14 01:24:11;;;;;;;19.92;10.07;;;9.10;26.70;;;;;;5123735;28;20024;-66
2022/03/14 01:26:37;;;;;;;18.75;9.85;;;9.10;26.60;;;;;;5122469;28;20023;-66
2022/03/14 01:29:04;;;;;;;16.30;9.55;;;9.00;26.90;;;;;;5123723;28;20316;-67
2022/03/14 01:31:29;;;;;;;18.83;9.95;;;8.90;26.90;;;;;;5122445;28;20023;-66
2022/03/14 01:33:55;;;;;;;16.67;9.93;;;8.80;26.90;;;;;;5123603;28;20043;-67
2022/03/14 01:36:21;;;;;;;16.38;10.27;;;8.90;26.90;;;;;;5123531;28;20023;-67
2022/03/14 01:38:47;;;;;;;16.20;9.45;;;8.80;27.20;;;;;;5122307;28;20024;-65
2022/03/14 01:41:19;;;;;;;19.23;10.02;;;8.90;27.00;;;;;;5123448;28;20078;-67
2022/03/14 01:43:47;;;;;;;19.95;10.77;;;8.90;27.10;;;;;;5122637;28;20062;-65
2022/03/14 01:46:15;;;;;;;19.95;9.35;;;9.00;27.10;;;;;;5122222;28;20147;-66
2022/03/14 01:48:41;;;;;;;15.45;9.02;;;9.00;27.00;;;;;;5122222;28;20016;-66
2022/03/14 01:51:06;;;;;;;16.98;9.13;;;9.10;27.00;;;;;;5122079;28;20391;-66
2022/03/14 01:53:34;;;;;;;15.05;8.93;;;9.10;27.00;;;;;;5121642;28;20028;-66
2022/03/14 01:56:00;;;;;;;13.70;8.90;;;9.10;27.00;;;;;;5122104;28;20055;-66
2022/03/14 01:58:26;;;;;;;18.17;9.48;;;9.10;27.10;;;;;;5122031;28;20088;-67
2022/03/14 02:00:51;;;;;;;16.55;9.73;;;9.10;27.00;;;;;;5121964;28;20024;-66
2022/03/14 02:03:17;;;;;;;20.80;9.48;;;9.00;27.10;;;;;;5121846;28;20354;-66
2022/03/14 02:05:47;;;;;;;16.67;9.10;;;9.10;27.00;;;;;;5121886;28;20023;-66
2022/03/14 02:08:14;;;;;;;16.38;9.23;;;9.00;27.00;;;;;;5121924;28;20335;-67
2022/03/14 02:10:39;;;;;;;15.63;9.20;;;9.10;27.10;;;;;;5121840;28;20575;-66
2022/03/14 02:13:06;;;;;;;15.07;8.75;;;9.10;27.00;;;;;;5121722;28;20035;-66
2022/03/14 02:15:32;;;;;;;16.38;9.23;;;9.10;27.10;;;;;;5121808;28;20127;-66
2022/03/14 02:17:58;;;;;;;17.42;9.25;;;9.10;27.10;;;;;;5121752;28;20521;-67
2022/03/14 02:20:23;;;;;;;14.50;9.20;;;9.10;27.10;;;;;;5121688;28;20031;-66
2022/03/14 02:22:49;;;;;;;14.13;9.75;;;9.10;27.10;;;;;;5121817;28;20034;-67
2022/03/14 02:25:15;;;;;;;13.60;8.90;;;9.10;27.10;;;;;;5121633;28;20201;-65
2022/03/14 02:27:40;;;;;;;13.82;9.10;;;9.10;27.00;;;;;;5121563;28;20204;-66
2022/03/14 02:30:07;;;;;;;14.40;8.60;;;9.10;27.10;;;;;;5121497;28;20530;-65
2022/03/14 02:32:32;;;;;;;15.57;8.85;;;9.00;27.40;;;;;;5121514;28;20290;-66
2022/03/14 02:34:58;;;;;;;14.02;8.73;;;9.00;27.30;;;;;;5121416;28;20081;-68
2022/03/14 02:37:24;;;;;;;18.50;9.77;;;9.00;27.20;;;;;;5121417;28;20023;-67
2022/03/14 02:39:50;;;;;;;14.15;9.23;;;9.00;27.20;;;;;;5121434;28;20026;-67
2022/03/14 02:42:16;;;;;;;18.42;9.30;;;9.10;27.60;;;;;;5121258;28;20023;-67
2022/03/14 02:44:44;;;;;;;19.67;9.77;;;9.00;27.20;;;;;;5079653;28;1205213;-66
2022/03/14 02:47:11;;;;;;;13.55;8.40;;;9.10;27.20;;;;;;5122261;28;20087;-67
2022/03/14 02:49:38;;;;;;;17.27;10.15;;;9.10;27.30;;;;;;5122208;28;20024;-67
2022/03/14 02:52:04;;;;;;;13.05;8.27;;;9.00;27.30;;;;;;5122136;28;20032;-67
2022/03/14 02:54:29;;;;;;;15.57;8.98;;;9.00;27.30;;;;;;5121707;28;20354;-67
2022/03/14 02:56:57;;;;;;;16.05;10.38;;;9.00;27.20;;;;;;5122041;28;20024;-66
2022/03/14 02:59:22;;;;;;;15.93;9.05;;;9.00;27.30;;;;;;5121983;28;20095;-66
2022/03/14 03:01:48;;;;;;;15.45;8.95;;;9.00;27.40;;;;;;5121944;28;20023;-67
2022/03/14 03:04:14;;;;;;;14.20;8.38;;;9.00;27.30;;;;;;5121794;28;20027;-67
2022/03/14 03:06:41;;;;;;;12.23;8.20;;;9.00;27.50;;;;;;5121116;28;20027;-66
2022/03/14 03:09:06;;;;;;;13.23;8.50;;;8.90;27.50;;;;;;5121796;28;20065;-65
2022/03/14 03:11:32;;;;;;;15.05;8.82;;;8.90;27.40;;;;;;5121720;28;20027;-67
2022/03/14 03:14:02;;;;;;;15.00;9.18;;;8.80;27.70;;;;;;5121658;28;20351;-66
2022/03/14 03:16:28;;;;;;;11.13;7.68;;;8.80;27.70;;;;;;5121671;28;20068;-66
2022/03/14 03:18:54;;;;;;;16.35;9.55;;;8.80;27.70;;;;;;5121637;28;20028;-67
2022/03/14 03:21:20;;;;;;;10.82;7.57;;;8.80;27.70;;;;;;5121600;28;20027;-67
2022/03/14 03:23:46;;;;;;;15.00;7.80;;;8.70;27.90;;;;;;5121480;28;20016;-66
2022/03/14 03:26:12;;;;;;;13.75;8.38;;;8.70;27.90;;;;;;5121504;28;20027;-67
2022/03/14 03:28:38;;;;;;;16.52;8.90;;;8.60;27.90;;;;;;5121409;28;20035;-67
2022/03/14 03:31:09;;;;;;;15.75;9.27;;;8.60;28.00;;;;;;5121379;28;20083;-67
2022/03/14 03:33:35;;;;;;;15.50;8.48;;;8.70;27.90;;;;;;5121351;28;20385;-65
2022/03/14 03:36:01;;;;;;;14.63;8.85;;;8.80;27.90;;;;;;5121340;28;20031;-66
2022/03/14 03:38:27;;;;;;;14.15;8.88;;;8.60;28.00;;;;;;5121224;28;20193;-65
2022/03/14 03:40:53;;;;;;;11.35;8.02;;;8.70;27.90;;;;;;5121275;28;20034;-66
2022/03/14 03:43:19;;;;;;;18.33;9.35;;;8.60;28.00;;;;;;5120975;28;20382;-67
2022/03/14 03:45:45;;;;;;;16.42;9.75;;;8.60;28.10;;;;;;5121175;28;20024;-67
2022/03/14 03:48:10;;;;;;;15.38;8.95;;;8.40;28.30;;;;;;5121139;28;20022;-66
2022/03/14 03:50:36;;;;;;;15.50;8.93;;;8.40;28.20;;;;;;5121097;28;20027;-66
2022/03/14 03:53:02;;;;;;;14.13;8.48;;;8.40;28.10;;;;;;5121049;28;20210;-65
2022/03/14 03:55:27;;;;;;;12.73;8.10;;;8.50;28.00;;;;;;5121069;28;20042;-66
2022/03/14 03:57:53;;;;;;;13.63;8.70;;;8.60;28.00;;;;;;5120979;28;20034;-67
2022/03/14 04:00:19;;;;;;;14.15;8.43;;;8.50;28.00;;;;;;5120895;28;20068;-67
2022/03/14 04:02:46;;;;;;;15.75;8.68;;;8.60;28.10;;;;;;5120835;28;20121;-66
2022/03/14 04:05:16;;;;;;;16.20;8.27;;;8.70;27.90;;;;;;5120881;28;20030;-67
2022/03/14 04:07:42;;;;;;;13.35;8.48;;;8.70;27.90;;;;;;5120789;28;20031;-66
2022/03/14 04:10:12;;;;;;;14.55;8.80;;;8.80;27.80;;;;;;5120734;28;20059;-66
2022/03/14 04:12:39;;;;;;;14.98;9.40;;;8.80;27.80;;;;;;5119751;28;20035;-67
2022/03/14 04:15:09;;;;;;;12.05;8.30;;;8.80;27.90;;;;;;5120742;28;20028;-66
2022/03/14 04:17:38;;;;;;;14.45;8.43;;;8.80;27.80;;;;;;5120833;28;20032;-66
2022/03/14 04:20:06;;;;;;;15.00;9.57;;;8.90;27.80;;;;;;5120674;28;20101;-67
2022/03/14 04:22:32;;;;;;;13.30;8.88;;;8.80;27.90;;;;;;5119271;28;20332;-66
2022/03/14 04:25:01;;;;;;;10.75;8.35;;;8.80;27.90;;;;;;5120600;28;20026;-66
2022/03/14 04:27:27;;;;;;;16.45;9.40;;;8.80;27.90;;;;;;5120577;28;20059;-65
2022/03/14 04:29:52;;;;;;;17.55;9.15;;;8.70;28.00;;;;;;5120597;28;20020;-66
2022/03/14 04:32:18;;;;;;;14.45;9.48;;;8.80;27.90;;;;;;5120506;28;20024;-66
2022/03/14 04:34:44;;;;;;;14.45;9.02;;;8.80;27.90;;;;;;5120504;28;20027;-65
2022/03/14 04:37:11;;;;;;;15.73;9.50;;;8.80;28.00;;;;;;5120502;28;20023;-65
2022/03/14 04:39:37;;;;;;;14.93;8.68;;;8.80;27.90;;;;;;5120483;28;20097;-67
2022/03/14 04:42:03;;;;;;;17.10;9.88;;;8.80;27.90;;;;;;5120422;28;20023;-66
2022/03/14 04:44:29;;;;;;;13.07;8.45;;;8.80;28.00;;;;;;5120190;28;20352;-66
2022/03/14 04:46:54;;;;;;;18.27;9.23;;;8.70;28.00;;;;;;5120393;28;20316;-66
2022/03/14 04:49:20;;;;;;;13.23;9.27;;;8.70;28.00;;;;;;5120297;28;20028;-66
2022/03/14 04:51:50;;;;;;;16.95;10.18;;;8.70;28.00;;;;;;5120310;28;20023;-66
2022/03/14 04:54:16;;;;;;;15.25;9.82;;;8.50;28.10;;;;;;5120352;28;20019;-66
2022/03/14 04:56:41;;;;;;;16.25;9.40;;;8.60;28.10;;;;;;5120239;28;20043;-65
2022/03/14 04:59:07;;;;;;;14.18;9.15;;;8.50;28.20;;;;;;5120234;28;20032;-65
2022/03/14 05:01:33;;;;;;;14.88;9.43;;;8.50;28.30;;;;;;5120241;28;20051;-66
2022/03/14 05:03:59;;;;;;;15.43;9.55;;;8.50;28.40;;;;;;5120129;28;20032;-66
2022/03/14 05:06:24;;;;;;;15.75;9.73;;;8.40;28.50;;;;;;5120169;28;20422;-66
2022/03/14 05:08:50;;;;;;;14.27;9.98;;;8.40;28.40;;;;;;5120150;28;20201;-66
2022/03/14 05:11:16;;;;;;;16.00;9.70;;;8.50;28.40;;;;;;5120135;28;20023;-66
2022/03/14 05:13:42;;;;;;;17.90;10.18;;;8.30;28.60;;;;;;5120403;28;20042;-67
2022/03/14 05:16:08;;;;;;;16.98;9.48;;;8.20;28.80;;;;;;5120313;28;20027;-66
2022/03/14 05:18:34;;;;;;;19.60;9.77;;;8.10;28.90;;;;;;5120048;28;20201;-66
2022/03/14 05:21:00;;;;;;;14.85;10.25;;;8.10;29.00;;;;;;5120091;28;20436;-65
2022/03/14 05:23:28;;;;;;;23.02;10.35;;;8.10;29.00;;;;;;5119958;28;20055;-67
2022/03/14 05:25:54;;;;;;;22.85;11.65;;;8.10;28.90;;;;;;5120038;28;20344;-65
2022/03/14 05:28:20;;;;;;;17.50;10.35;;;8.00;29.20;;;;;;5120435;28;20054;-66
2022/03/14 05:30:45;;;;;;;18.77;10.45;;;7.90;29.20;;;;;;5123752;28;20255;-66
2022/03/14 05:33:11;;;;;;;20.92;11.05;;;7.90;29.30;;;;;;5123728;28;20035;-67
2022/03/14 05:35:37;;;;;;;15.70;10.07;;;7.80;29.50;;;;;;5123697;28;20205;-66
2022/03/14 05:38:02;;;;;;;19.50;11.45;;;7.80;29.20;;;;;;5123639;28;20162;-67
2022/03/14 05:40:28;;;;;;;20.23;12.52;;;7.80;29.50;;;;;;5123571;28;20069;-66
2022/03/14 05:42:54;;;;;;;21.13;12.00;;;7.80;29.20;;;;;;5123378;28;20055;-67
2022/03/14 05:45:20;;;;;;;19.50;10.85;;;7.80;29.60;;;;;;5123580;28;20062;-66
2022/03/14 05:47:47;;;;;;;20.45;12.32;;;7.70;29.50;;;;;;5123499;28;20359;-65
2022/03/14 05:50:13;;;;;;;16.83;10.90;;;7.70;29.80;;;;;;5123444;28;20372;-67
2022/03/14 05:52:39;;;;;;;21.13;12.25;;;7.70;29.80;;;;;;5123389;28;20023;-67
2022/03/14 05:55:09;;;;;;;16.23;11.30;;;7.70;29.90;;;;;;5123323;28;20212;-66
2022/03/14 05:57:35;;;;;;;21.10;11.88;;;7.70;30.20;;;;;;5123557;28;20024;-67
2022/03/14 06:00:04;;;;;;;19.30;11.90;;;7.60;29.80;;;;;;5123251;28;20042;-67
2022/03/14 06:02:29;;;;;;;19.05;10.65;;;7.60;30.00;;;;;;5123084;28;20316;-66
2022/03/14 06:04:55;;;;;;;20.30;12.27;;;7.60;30.30;;;;;;5123163;28;20035;-66
2022/03/14 06:07:21;;;;;;;22.70;11.98;;;7.60;30.20;;;;;;5121812;28;20456;-67
2022/03/14 06:09:50;;;;;;;18.05;10.88;;;7.60;30.10;;;;;;5123085;28;20027;-66
2022/03/14 06:12:27;;;;;;;21.02;10.85;;;7.60;30.30;;;;;;5122982;28;20035;-66
2022/03/14 06:14:57;;;;;;;22.38;12.35;;;7.60;30.20;;;;;;5123038;28;20028;-67
2022/03/14 06:17:23;;;;;;;18.67;10.90;;;7.60;30.30;;;;;;5122937;28;20031;-66
2022/03/14 06:19:50;;;;;;;17.80;11.68;;;7.60;30.30;;;;;;5122807;28;20122;-66
2022/03/14 06:22:17;;;;;;;22.88;10.98;;;7.70;30.40;;;;;;5121448;28;20015;-66
2022/03/14 06:24:46;;;;;;;20.83;12.00;;;7.70;30.00;;;;;;5122823;28;20015;-66
2022/03/14 06:27:12;;;;;;;;;;;7.80;30.00;;;;;;5123225;27;20023;-67
2022/03/14 06:29:38;;;;;;;19.10;11.15;;;7.80;29.80;;;;;;5122696;28;19915;-67
2022/03/14 06:32:04;;;;;;;20.63;11.70;;;7.90;30.00;;;;;;5122615;28;20033;-67
2022/03/14 06:34:30;;;;;;;24.92;12.80;;;7.90;30.00;;;;;;5122633;28;20035;-66
2022/03/14 06:36:56;;;;;;;23.23;12.82;;;7.90;29.90;;;;;;5122569;28;20020;-67
2022/03/14 06:39:22;;;;;;;20.52;11.98;;;8.00;30.00;;;;;;5122202;28;20028;-67
2022/03/14 06:41:48;;;;;;;23.15;11.80;;;8.00;29.80;;;;;;5121501;28;20019;-67
2022/03/14 06:44:14;;;;;;;17.05;11.50;;;8.10;29.70;;;;;;5122319;27;20082;-67
2022/03/14 06:46:40;;;;;;;20.83;11.80;;;8.10;29.90;;;;;;5122412;28;20038;-65
2022/03/14 06:49:06;;;;;;;18.95;11.25;;;8.20;29.80;;;;;;5122316;28;20054;-67
2022/03/14 06:51:33;;;;;;;19.23;11.43;;;8.20;29.90;;;;;;5122208;28;20095;-66
2022/03/14 06:53:59;;;;;;;19.75;11.80;;;8.20;29.70;;;;;;5122215;28;20339;-68
2022/03/14 06:56:25;;;;;;;17.13;10.77;;;8.30;29.60;;;;;;5122137;27;20023;-66
2022/03/14 06:58:51;;;;;;;20.77;11.88;;;8.30;29.40;;;;;;5120867;28;20249;-67
2022/03/14 07:01:18;;;;;;;20.83;12.93;;;8.40;29.60;;;;;;5122122;28;20055;-66
2022/03/14 07:03:44;;;;;;;19.30;11.65;;;8.40;29.70;;;;;;5121960;28;20023;-67
2022/03/14 07:06:09;;;;;;;17.75;12.13;;;8.50;29.50;;;;;;5121888;28;20106;-67
2022/03/14 07:08:35;;;;;;;17.38;11.32;;;8.60;29.30;;;;;;5121876;28;20251;-66
2022/03/14 07:11:01;;;;;;;18.75;11.55;;;8.70;29.20;;;;;;5121881;28;20060;-68
2022/03/14 07:13:26;;;;;;;24.77;12.15;;;8.70;29.30;;;;;;5121811;28;20023;-66
2022/03/14 07:15:52;;;;;;;21.50;11.38;;;8.80;29.20;;;;;;5121796;28;20027;-67
2022/03/14 07:18:18;;;;;;;19.17;11.90;;;8.80;29.30;;;;;;5121772;28;20141;-67
2022/03/14 07:20:44;;;;;;;19.17;11.63;;;8.90;29.10;;;;;;5120404;28;20328;-68
2022/03/14 07:23:09;;;;;;;21.98;10.73;;;8.90;29.00;;;;;;5121618;28;20099;-66
2022/03/14 07:25:40;;;;;;;19.52;11.50;;;9.00;29.10;;;;;;5121533;28;20055;-67
2022/03/14 07:28:07;;;;;;;17.92;9.98;;;9.10;28.60;;;;;;5121576;28;20020;-67
2022/03/14 07:30:34;;;;;;;16.98;10.68;;;9.20;28.60;;;;;;5121471;28;20276;-67
2022/03/14 07:33:00;;;;;;;14.50;10.13;;;9.20;28.20;;;;;;5120179;28;20023;-66
2022/03/14 07:35:27;;;;;;;15.18;9.23;;;9.30;28.40;;;;;;5121409;28;20052;-67
2022/03/14 07:37:53;;;;;;;15.82;10.15;;;9.30;28.30;;;;;;5121435;28;20309;-67
2022/03/14 07:40:19;;;;;;;16.23;9.10;;;9.40;28.10;;;;;;5121367;28;20027;-66
2022/03/14 07:42:48;;;;;;;18.13;9.77;;;9.40;27.90;;;;;;5121066;28;20062;-67
2022/03/14 07:45:16;;;;;;;14.40;9.00;;;9.50;27.90;;;;;;5121372;28;20055;-67
2022/03/14 07:47:43;;;;;;;14.00;9.20;;;9.50;27.90;;;;;;5121288;28;20035;-66
2022/03/14 07:50:11;;;;;;;17.58;9.45;;;9.60;27.70;;;;;;5121172;28;20047;-67
2022/03/14 07:52:37;;;;;;;12.68;8.63;;;9.60;27.60;;;;;;5121072;28;20030;-66
2022/03/14 07:55:06;;;;;;;16.38;9.93;;;9.70;27.80;;;;;;5121099;28;20023;-66
2022/03/14 07:57:32;;;;;;;12.38;8.85;;;9.70;27.70;;;;;;5121120;28;20104;-65
2022/03/14 08:00:01;;;;;;;15.25;9.38;;;9.80;27.70;;;;;;5120932;28;20331;-66
2022/03/14 08:02:27;;;;;;;16.83;9.60;;;9.80;27.70;;;;;;5120922;28;20027;-67
2022/03/14 08:04:53;;;;;;;14.48;9.38;;;9.90;27.60;;;;;;5121206;28;20042;-67
2022/03/14 08:07:20;;;;;;;15.13;8.60;;;9.90;27.70;;;;;;5120890;28;20328;-67
2022/03/14 08:09:49;;;;;;;14.23;8.93;;;10.00;27.70;;;;;;5120840;28;20035;-67
2022/03/14 08:12:15;;;;;;;;;;;10.00;27.70;;;;;;5121299;28;20027;-66
2022/03/14 08:14:41;;;;;;;16.52;9.48;;;10.00;27.80;;;;;;5120790;28;20195;-68
2022/03/14 08:17:07;;;;;;;14.38;9.23;;;10.10;27.80;;;;;;5120778;28;20343;-67
2022/03/14 08:19:34;;;;;;;15.40;9.50;;;10.10;27.90;;;;;;5120710;28;20105;-67
2022/03/14 08:22:01;;;;;;;16.98;9.95;;;10.20;27.90;;;;;;5120753;28;20034;-66
2022/03/14 08:24:27;;;;;;;14.77;8.57;;;10.20;27.80;;;;;;5120581;28;20023;-67
2022/03/14 08:26:53;;;;;;;14.23;9.38;;;10.20;27.80;;;;;;5120610;28;20320;-68
2022/03/14 08:29:19;;;;;;;13.07;8.48;;;10.30;27.90;;;;;;5120592;28;20030;-68
2022/03/14 08:31:44;;;;;;;17.73;9.80;;;10.30;28.00;;;;;;5119272;28;20099;-67
2022/03/14 08:34:11;;;;;;;14.45;9.05;;;10.30;27.90;;;;;;5120472;28;20031;-67
2022/03/14 08:36:40;;;;;;;14.00;8.88;;;10.40;28.10;;;;;;5120545;28;20055;-67
2022/03/14 08:39:09;;;;;;;16.65;9.43;;;10.40;28.10;;;;;;5120527;28;20030;-68
2022/03/14 08:41:36;;;;;;;12.90;9.15;;;10.50;28.20;;;;;;5120544;28;20058;-67
2022/03/14 08:44:09;;;;;;;17.42;9.35;;;10.50;28.20;;;;;;5120287;28;20044;-68
2022/03/14 08:46:34;;;;;;;15.00;9.30;;;10.50;28.20;;;;;;5120484;28;20067;-66
2022/03/14 08:49:01;;;;;;;13.98;8.98;;;10.50;28.10;;;;;;5120406;28;20051;-65
2022/03/14 08:51:27;;;;;;;13.75;8.73;;;10.60;28.20;;;;;;5120439;28;20012;-66
2022/03/14 08:53:53;;;;;;;13.82;9.02;;;10.60;28.10;;;;;;5120413;28;20024;-67
2022/03/14 08:56:19;;;;;;;14.00;8.82;;;10.70;28.10;;;;;;5119324;28;20185;-66
2022/03/14 08:58:45;;;;;;;25.65;9.05;;;10.70;28.00;;;;;;5120381;28;20042;-65
2022/03/14 09:01:11;;;;;;;14.27;8.55;;;10.70;27.80;;;;;;5118987;28;20022;-66
2022/03/14 09:03:37;;;;;;;15.20;8.25;;;10.70;27.70;;;;;;5121150;28;20023;-66
2022/03/14 09:06:04;;;;;;;17.67;8.57;;;10.70;27.90;;;;;;5124352;28;20019;-67
2022/03/14 09:08:29;;;;;;;15.45;8.57;;;10.70;27.80;;;;;;5124282;28;20027;-67
2022/03/14 09:10:55;;;;;;;13.13;8.10;;;10.70;27.80;;;;;;5124112;28;20023;-67
2022/03/14 09:13:23;;;;;;;15.68;8.75;;;10.80;27.80;;;;;;5124139;28;20432;-66
2022/03/14 09:15:49;;;;;;;11.82;8.07;;;10.80;28.00;;;;;;5124139;27;20031;-67
2022/03/14 09:18:15;;;;;;;11.68;7.15;;;10.80;27.70;;;;;;5124064;28;20093;-67
2022/03/14 09:20:42;;;;;;;13.15;8.45;;;10.80;27.80;;;;;;5124040;28;20042;-66
2022/03/14 09:23:09;;;;;;;11.82;8.02;;;10.80;27.90;;;;;;5123914;27;20082;-65
2022/03/14 09:25:35;;;;;;;15.32;8.65;;;10.90;27.90;;;;;;5123885;28;20044;-66
2022/03/14 09:28:00;;;;;;;12.65;8.07;;;10.90;27.90;;;;;;5123930;28;20020;-65
2022/03/14 09:30:27;;;;;;;13.10;7.80;;;10.90;28.30;;;;;;5123828;28;20054;-65
2022/03/14 09:32:54;;;;;;;11.63;7.60;;;10.90;27.90;;;;;;5123846;28;20027;-66
2022/03/14 09:35:21;;;;;;;14.98;8.40;;;11.00;27.70;;;;;;5123732;28;20035;-66
2022/03/14 09:37:49;;;;;;;13.25;8.10;;;11.00;27.60;;;;;;5123768;28;20054;-66
2022/03/14 09:40:17;;;;;;;11.73;7.18;;;11.00;27.90;;;;;;5123615;28;20025;-66
2022/03/14 09:42:48;;;;;;;13.02;6.63;;;11.00;27.90;;;;;;5123446;28;20522;-67
2022/03/14 09:45:14;;;;;;;12.25;7.45;;;11.00;28.00;;;;;;5123565;28;20027;-66
2022/03/14 09:47:45;;;;;;;14.10;7.72;;;11.00;27.70;;;;;;5123420;28;20105;-66
2022/03/14 09:50:14;;;;;;;15.43;7.65;;;11.00;27.90;;;;;;5123458;28;20220;-66
2022/03/14 09:52:44;;;;;;;12.35;6.72;;;11.00;27.90;;;;;;5123486;28;20663;-66
2022/03/14 09:55:11;;;;;;;11.15;6.82;;;11.00;27.90;;;;;;5123367;28;20269;-66
2022/03/14 09:57:38;;;;;;;12.55;7.30;;;11.00;28.00;;;;;;5123347;27;20023;-67
2022/03/14 10:00:06;;;;;;;12.85;7.57;;;11.10;28.00;;;;;;5123283;28;20047;-67
2022/03/14 10:02:36;;;;;;;11.57;7.28;;;11.10;28.30;;;;;;5123217;28;20095;-66
2022/03/14 10:05:06;;;;;;;11.27;7.25;;;11.10;28.30;;;;;;5123201;27;20066;-67
2022/03/14 10:07:34;;;;;;;12.80;7.28;;;11.10;28.30;;;;;;5123106;28;20026;-67
2022/03/14 10:10:00;;;;;;;9.75;6.60;;;11.10;28.20;;;;;;5123087;28;20027;-67
2022/03/14 10:12:26;;;;;;;11.73;7.30;;;11.10;28.40;;;;;;5123049;28;20015;-67
2022/03/14 10:14:51;;;;;;;11.65;7.50;;;11.10;28.40;;;;;;5122695;28;20088;-65
2022/03/14 10:17:17;;;;;;;11.57;7.72;;;11.10;28.50;;;;;;5122867;28;20058;-66
2022/03/14 10:19:56;;;;;;;12.27;6.90;;;11.10;28.50;;;;;;5122853;28;20011;-67
2022/03/14 10:22:22;;;;;;;12.40;7.72;;;11.20;28.50;;;;;;5122855;28;20027;-67
2022/03/14 10:24:51;;;;;;;11.57;6.93;;;11.20;28.50;;;;;;5122777;28;20027;-66
2022/03/14 10:27:18;;;;;;;11.40;7.17;;;11.20;28.50;;;;;;5122756;28;20024;-66
2022/03/14 10:29:46;;;;;;;15.55;6.65;;;11.20;28.40;;;;;;5122673;28;20091;-66
2022/03/14 10:32:32;;;;;;;11.57;6.93;;;11.20;28.20;;;;;;5122682;28;20231;-67
2022/03/14 10:35:07;;;;;;;10.00;6.90;;;11.20;28.10;;;;;;5122563;27;20015;-67
2022/03/14 10:37:34;;;;;;;9.57;6.63;;;11.30;28.50;;;;;;5121300;28;20019;-68
2022/03/14 10:40:03;;;;;;;11.35;6.35;;;11.30;28.60;;;;;;5122414;28;20028;-66
2022/03/14 10:42:37;;;;;;;11.10;7.28;;;11.30;28.60;;;;;;5122406;28;20020;-67
2022/03/14 10:45:10;;;;;;;9.63;6.63;;;11.30;28.60;;;;;;5122417;28;20032;-67
2022/03/14 10:47:37;;;;;;;9.77;6.70;;;11.30;28.60;;;;;;5122369;27;20015;-66
2022/03/14 10:50:03;;;;;;;11.05;7.28;;;11.30;28.70;;;;;;5122314;28;20061;-67
2022/03/14 10:52:28;;;;;;;8.48;6.57;;;11.30;28.70;;;;;;5122223;28;20024;-67
2022/03/14 10:54:55;;;;;;;12.60;7.35;;;11.30;28.80;;;;;;5122142;28;20034;-66
2022/03/14 10:57:26;;;;;;;10.00;6.95;;;11.30;28.80;;;;;;5122129;28;20024;-66
2022/03/14 10:59:54;;;;;;;12.60;7.00;;;11.30;29.20;;;;;;5122102;28;20019;-67
2022/03/14 11:02:25;;;;;;;10.40;6.55;;;11.40;28.80;;;;;;5122045;27;20198;-68
2022/03/14 11:04:54;;;;;;;10.70;6.07;;;11.40;28.80;;;;;;5122007;28;20054;-66
2022/03/14 11:07:25;;;;;;;11.65;6.32;;;11.40;28.80;;;;;;5121928;28;20082;-67
2022/03/14 11:09:53;;;;;;;9.75;6.32;;;11.40;28.80;;;;;;5121950;28;20008;-68
2022/03/14 11:12:21;;;;;;;10.77;6.90;;;11.40;28.80;;;;;;5121889;28;20316;-67
2022/03/14 11:14:58;;;;;;;9.65;6.25;;;11.40;28.70;;;;;;5121787;28;20027;-66
2022/03/14 11:17:28;;;;;;;11.30;6.65;;;11.40;28.80;;;;;;5121789;28;20023;-66
2022/03/14 11:19:55;;;;;;;11.10;6.70;;;11.40;28.80;;;;;;5121735;28;20249;-66
2022/03/14 11:22:23;;;;;;;10.57;6.25;;;11.40;28.80;;;;;;5121620;28;20022;-66
2022/03/14 11:24:57;;;;;;;8.55;6.05;;;11.50;28.80;;;;;;5120316;28;20023;-66
2022/03/14 11:27:28;;;;;;;8.80;6.13;;;11.50;28.80;;;;;;5120966;28;20053;-67
2022/03/14 11:30:00;;;;;;;9.75;5.72;;;11.50;28.90;;;;;;5121520;28;20023;-67
2022/03/14 11:32:26;;;;;;;8.90;5.20;;;11.50;28.90;;;;;;5121477;28;20024;-66
2022/03/14 11:34:52;;;;;;;10.68;5.28;;;11.50;28.90;;;;;;5121483;28;20064;-66
2022/03/14 11:37:19;;;;;;;7.18;5.07;;;11.50;29.40;;;;;;5121348;28;20090;-67
2022/03/14 11:39:45;;;;;;;6.50;5.25;;;11.50;28.90;;;;;;5121290;28;20380;-66
2022/03/14 11:42:12;;;;;;;9.07;5.05;;;11.50;28.90;;;;;;5121317;28;20019;-66
2022/03/14 11:44:39;;;;;;;6.70;4.75;;;11.50;28.90;;;;;;5121034;28;20055;-66
2022/03/14 11:47:09;;;;;;;7.80;5.32;;;11.50;28.80;;;;;;5121198;28;20031;-66
2022/03/14 11:49:36;;;;;;;9.18;6.15;;;11.60;28.80;;;;;;5121166;28;20022;-67
2022/03/14 11:52:14;;;;;;;7.95;5.65;;;11.60;28.90;;;;;;5121086;27;20088;-66
2022/03/14 11:54:45;;;;;;;7.38;5.72;;;11.60;28.90;;;;;;5121057;28;20347;-68
2022/03/14 11:57:11;;;;;;;8.43;4.80;;;11.60;28.90;;;;;;5120997;28;20035;-66
2022/03/14 11:59:37;;;;;;;9.02;4.97;;;11.60;28.90;;;;;;5121207;28;20111;-66
2022/03/14 12:02:07;;;;;;;7.32;4.78;;;11.60;28.90;;;;;;5120972;28;20022;-67
2022/03/14 12:04:38;;;;;;;7.95;5.00;;;11.60;28.90;;;;;;5120801;28;20027;-67
2022/03/14 12:07:08;;;;;;;8.05;4.63;;;11.60;28.90;;;;;;5120897;28;20235;-67
2022/03/14 12:09:34;;;;;;;13.38;5.50;;;11.60;28.90;;;;;;5120857;28;20020;-67
2022/03/14 12:12:11;;;;;;;8.50;5.50;;;11.60;28.90;;;;;;5121052;28;20084;-67
2022/03/14 12:14:42;;;;;;;7.07;4.90;;;11.60;28.90;;;;;;5120744;28;20031;-66
2022/03/14 12:17:14;;;;;;;8.68;4.25;;;11.70;28.90;;;;;;5120708;28;20300;-65
2022/03/14 12:19:44;;;;;;;7.78;4.85;;;11.70;29.10;;;;;;5120608;28;20035;-65
2022/03/14 12:22:35;;;;;;;6.90;4.70;;;11.70;29.10;;;;;;5120990;28;20233;-67
2022/03/14 12:25:03;;;;;;;10.05;5.70;;;11.70;29.00;;;;;;5120682;28;20023;-66
2022/03/14 12:27:35;;;;;;;7.63;5.32;;;11.70;29.10;;;;;;5120573;28;20035;-67
2022/03/14 12:30:07;;;;;;;7.63;4.63;;;11.70;29.00;;;;;;5120574;28;20039;-67
2022/03/14 12:32:39;;;;;;;8.63;4.85;;;11.80;29.10;;;;;;5120537;28;20027;-67
2022/03/14 12:35:12;;;;;;;7.43;4.60;;;11.70;29.10;;;;;;5120552;28;20028;-65
2022/03/14 12:37:41;;;;;;;8.35;4.47;;;11.80;29.20;;;;;;5121530;28;20019;-67
2022/03/14 12:40:19;;;;;;;;;;;11.80;29.10;;;;;;5125268;28;20090;-65
2022/03/14 12:42:47;;;;;;;8.27;4.95;;;11.80;29.10;;;;;;5124558;28;19942;-65